sensor_id;sensor_type;location;lat;lon;timestamp;pressure;altitude;pressure_sealevel;temperature;humidity
60041;BME280;60036;53.468;-2.266;2022-07-23T00:00:10;101511.88;;;20.23;29.54
60041;BME280;60036;53.468;-2.266;2022-07-23T00:02:34;101504.80;;;19.95;29.66
60041;BME280;60036;53.468;-2.266;2022-07-23T00:04:59;101506.11;;;19.87;29.76
60041;BME280;60036;53.468;-2.266;2022-07-23T00:07:25;101506.07;;;20.49;29.55
60041;BME280;60036;53.468;-2.266;2022-07-23T00:09:50;101508.12;;;20.38;29.60
60041;BME280;60036;53.468;-2.266;2022-07-23T00:12:15;101505.82;;;19.98;30.02
60041;BME280;60036;53.468;-2.266;2022-07-23T00:14:40;101502.68;;;19.80;29.89
60041;BME280;60036;53.468;-2.266;2022-07-23T00:17:06;101502.93;;;19.91;29.73
60041;BME280;60036;53.468;-2.266;2022-07-23T00:19:31;101499.55;;;19.90;29.67
60041;BME280;60036;53.468;-2.266;2022-07-23T00:21:56;101503.88;;;19.96;29.71
60041;BME280;60036;53.468;-2.266;2022-07-23T00:24:21;101500.54;;;20.27;29.54
60041;BME280;60036;53.468;-2.266;2022-07-23T00:26:46;101499.42;;;20.06;29.93
60041;BME280;60036;53.468;-2.266;2022-07-23T00:29:12;101499.88;;;20.14;29.89
60041;BME280;60036;53.468;-2.266;2022-07-23T00:31:38;101504.76;;;20.14;29.84
60041;BME280;60036;53.468;-2.266;2022-07-23T00:34:03;101506.61;;;19.59;30.30
60041;BME280;60036;53.468;-2.266;2022-07-23T00:36:27;101503.87;;;19.81;30.34
60041;BME280;60036;53.468;-2.266;2022-07-23T00:38:53;101498.58;;;19.96;30.13
60041;BME280;60036;53.468;-2.266;2022-07-23T00:41:18;101497.57;;;19.53;30.27
60041;BME280;60036;53.468;-2.266;2022-07-23T00:43:43;101497.08;;;19.47;30.45
60041;BME280;60036;53.468;-2.266;2022-07-23T00:46:08;101495.24;;;19.65;30.40
60041;BME280;60036;53.468;-2.266;2022-07-23T00:48:33;101490.73;;;19.99;30.19
60041;BME280;60036;53.468;-2.266;2022-07-23T00:50:59;101490.58;;;20.25;29.82
60041;BME280;60036;53.468;-2.266;2022-07-23T00:53:24;101484.21;;;20.49;29.60
60041;BME280;60036;53.468;-2.266;2022-07-23T00:55:49;101483.55;;;20.76;29.37
60041;BME280;60036;53.468;-2.266;2022-07-23T00:58:14;101486.13;;;20.74;29.24
60041;BME280;60036;53.468;-2.266;2022-07-23T01:00:39;101486.83;;;20.95;29.14
60041;BME280;60036;53.468;-2.266;2022-07-23T01:03:04;101485.91;;;20.53;29.41
60041;BME280;60036;53.468;-2.266;2022-07-23T01:05:31;101483.20;;;20.48;29.50
60041;BME280;60036;53.468;-2.266;2022-07-23T01:07:55;101479.47;;;19.74;30.25
60041;BME280;60036;53.468;-2.266;2022-07-23T01:10:20;101478.97;;;19.70;30.07
60041;BME280;60036;53.468;-2.266;2022-07-23T01:12:45;101481.17;;;19.89;29.91
60041;BME280;60036;53.468;-2.266;2022-07-23T01:15:11;101482.03;;;19.93;30.15
60041;BME280;60036;53.468;-2.266;2022-07-23T01:17:36;101483.05;;;20.65;29.48
60041;BME280;60036;53.468;-2.266;2022-07-23T01:20:01;101478.60;;;20.88;29.41
60041;BME280;60036;53.468;-2.266;2022-07-23T01:22:28;101473.23;;;21.03;29.20
60041;BME280;60036;53.468;-2.266;2022-07-23T01:24:51;101471.59;;;21.07;29.01
60041;BME280;60036;53.468;-2.266;2022-07-23T01:27:17;101473.25;;;20.57;29.36
60041;BME280;60036;53.468;-2.266;2022-07-23T01:29:42;101470.18;;;20.44;29.59
60041;BME280;60036;53.468;-2.266;2022-07-23T01:32:07;101468.45;;;20.04;29.78
60041;BME280;60036;53.468;-2.266;2022-07-23T01:34:32;101468.47;;;19.88;29.83
60041;BME280;60036;53.468;-2.266;2022-07-23T01:36:57;101470.18;;;20.31;29.45
60041;BME280;60036;53.468;-2.266;2022-07-23T01:39:22;101471.74;;;20.00;29.52
60041;BME280;60036;53.468;-2.266;2022-07-23T01:41:48;101474.47;;;20.68;29.15
60041;BME280;60036;53.468;-2.266;2022-07-23T01:44:13;101470.39;;;20.47;29.44
60041;BME280;60036;53.468;-2.266;2022-07-23T01:46:38;101469.21;;;20.19;29.62
60041;BME280;60036;53.468;-2.266;2022-07-23T01:49:04;101470.73;;;20.40;29.35
60041;BME280;60036;53.468;-2.266;2022-07-23T01:51:30;101474.05;;;20.41;29.32
60041;BME280;60036;53.468;-2.266;2022-07-23T01:53:54;101467.55;;;20.54;29.38
60041;BME280;60036;53.468;-2.266;2022-07-23T01:56:19;101463.75;;;20.24;29.42
60041;BME280;60036;53.468;-2.266;2022-07-23T01:58:45;101463.18;;;20.74;29.17
60041;BME280;60036;53.468;-2.266;2022-07-23T02:01:10;101454.60;;;20.73;29.08
60041;BME280;60036;53.468;-2.266;2022-07-23T02:03:35;101458.79;;;20.04;29.43
60041;BME280;60036;53.468;-2.266;2022-07-23T02:06:01;101457.29;;;20.90;28.98
60041;BME280;60036;53.468;-2.266;2022-07-23T02:08:26;101457.31;;;21.03;28.89
60041;BME280;60036;53.468;-2.266;2022-07-23T02:10:51;101459.26;;;20.83;29.02
60041;BME280;60036;53.468;-2.266;2022-07-23T02:13:16;101457.94;;;21.09;28.93
60041;BME280;60036;53.468;-2.266;2022-07-23T02:15:41;101462.18;;;20.55;28.96
60041;BME280;60036;53.468;-2.266;2022-07-23T02:18:06;101459.58;;;20.62;28.93
60041;BME280;60036;53.468;-2.266;2022-07-23T02:20:32;101456.74;;;20.73;28.93
60041;BME280;60036;53.468;-2.266;2022-07-23T02:22:57;101459.95;;;20.97;29.03
60041;BME280;60036;53.468;-2.266;2022-07-23T02:25:22;101460.08;;;21.22;28.73
60041;BME280;60036;53.468;-2.266;2022-07-23T02:27:48;101463.03;;;20.82;28.96
60041;BME280;60036;53.468;-2.266;2022-07-23T02:30:13;101461.86;;;20.76;28.92
60041;BME280;60036;53.468;-2.266;2022-07-23T02:32:38;101462.12;;;20.70;28.94
60041;BME280;60036;53.468;-2.266;2022-07-23T02:35:04;101464.56;;;20.22;29.26
60041;BME280;60036;53.468;-2.266;2022-07-23T02:37:29;101461.23;;;20.24;29.33
60041;BME280;60036;53.468;-2.266;2022-07-23T02:39:53;101457.30;;;19.71;29.42
60041;BME280;60036;53.468;-2.266;2022-07-23T02:42:19;101462.37;;;20.67;29.08
60041;BME280;60036;53.468;-2.266;2022-07-23T02:44:44;101458.95;;;20.63;28.86
60041;BME280;60036;53.468;-2.266;2022-07-23T02:47:09;101458.75;;;20.43;28.97
60041;BME280;60036;53.468;-2.266;2022-07-23T02:49:34;101456.66;;;19.50;29.29
60041;BME280;60036;53.468;-2.266;2022-07-23T02:52:00;101459.30;;;20.48;28.87
60041;BME280;60036;53.468;-2.266;2022-07-23T02:54:24;101458.28;;;20.52;28.65
60041;BME280;60036;53.468;-2.266;2022-07-23T02:56:50;101459.63;;;20.70;28.70
60041;BME280;60036;53.468;-2.266;2022-07-23T02:59:15;101460.07;;;20.90;28.53
60041;BME280;60036;53.468;-2.266;2022-07-23T03:01:40;101456.67;;;21.17;28.40
60041;BME280;60036;53.468;-2.266;2022-07-23T03:04:05;101456.90;;;20.66;28.67
60041;BME280;60036;53.468;-2.266;2022-07-23T03:06:30;101455.10;;;21.06;28.41
60041;BME280;60036;53.468;-2.266;2022-07-23T03:08:55;101452.75;;;20.94;28.38
60041;BME280;60036;53.468;-2.266;2022-07-23T03:11:21;101456.79;;;20.67;28.39
60041;BME280;60036;53.468;-2.266;2022-07-23T03:13:46;101454.76;;;20.94;28.38
60041;BME280;60036;53.468;-2.266;2022-07-23T03:16:11;101456.72;;;20.82;28.25
60041;BME280;60036;53.468;-2.266;2022-07-23T03:18:36;101455.13;;;20.78;28.15
60041;BME280;60036;53.468;-2.266;2022-07-23T03:21:01;101454.43;;;20.97;28.07
60041;BME280;60036;53.468;-2.266;2022-07-23T03:23:27;101463.07;;;20.60;28.29
60041;BME280;60036;53.468;-2.266;2022-07-23T03:25:52;101462.80;;;21.09;28.09
60041;BME280;60036;53.468;-2.266;2022-07-23T03:28:18;101459.08;;;20.94;28.18
60041;BME280;60036;53.468;-2.266;2022-07-23T03:30:42;101462.32;;;21.00;28.04
60041;BME280;60036;53.468;-2.266;2022-07-23T03:33:07;101460.89;;;20.74;28.11
60041;BME280;60036;53.468;-2.266;2022-07-23T03:35:32;101460.30;;;20.49;28.20
60041;BME280;60036;53.468;-2.266;2022-07-23T03:37:58;101453.72;;;20.88;28.06
60041;BME280;60036;53.468;-2.266;2022-07-23T03:40:23;101450.90;;;20.86;28.09
60041;BME280;60036;53.468;-2.266;2022-07-23T03:42:48;101447.60;;;20.66;28.19
60041;BME280;60036;53.468;-2.266;2022-07-23T03:45:13;101453.91;;;20.63;28.24
60041;BME280;60036;53.468;-2.266;2022-07-23T03:47:38;101454.03;;;20.95;27.94
60041;BME280;60036;53.468;-2.266;2022-07-23T03:50:04;101451.31;;;20.84;27.98
60041;BME280;60036;53.468;-2.266;2022-07-23T03:52:28;101448.62;;;20.48;28.19
60041;BME280;60036;53.468;-2.266;2022-07-23T03:54:53;101448.00;;;20.98;27.93
60041;BME280;60036;53.468;-2.266;2022-07-23T03:57:19;101448.81;;;20.92;27.87
60041;BME280;60036;53.468;-2.266;2022-07-23T03:59:44;101451.47;;;21.26;27.83
60041;BME280;60036;53.468;-2.266;2022-07-23T04:02:09;101455.95;;;20.53;28.07
60041;BME280;60036;53.468;-2.266;2022-07-23T04:04:34;101452.78;;;20.48;28.13
60041;BME280;60036;53.468;-2.266;2022-07-23T04:06:59;101445.43;;;20.62;27.97
60041;BME280;60036;53.468;-2.266;2022-07-23T04:09:25;101443.14;;;20.32;28.12
60041;BME280;60036;53.468;-2.266;2022-07-23T04:11:50;101435.15;;;20.10;28.21
60041;BME280;60036;53.468;-2.266;2022-07-23T04:14:15;101424.50;;;19.75;28.59
60041;BME280;60036;53.468;-2.266;2022-07-23T04:16:40;101418.11;;;19.56;28.67
60041;BME280;60036;53.468;-2.266;2022-07-23T04:19:05;101412.38;;;19.79;28.47
60041;BME280;60036;53.468;-2.266;2022-07-23T04:21:30;101415.01;;;19.68;28.53
60041;BME280;60036;53.468;-2.266;2022-07-23T04:23:56;101417.05;;;20.07;28.09
60041;BME280;60036;53.468;-2.266;2022-07-23T04:26:21;101414.86;;;20.25;27.90
60041;BME280;60036;53.468;-2.266;2022-07-23T04:28:46;101418.51;;;20.70;27.72
60041;BME280;60036;53.468;-2.266;2022-07-23T04:31:11;101421.60;;;20.42;27.70
60041;BME280;60036;53.468;-2.266;2022-07-23T04:33:37;101424.34;;;19.84;28.14
60041;BME280;60036;53.468;-2.266;2022-07-23T04:36:02;101423.60;;;19.96;28.19
60041;BME280;60036;53.468;-2.266;2022-07-23T04:38:27;101421.24;;;20.26;27.96
60041;BME280;60036;53.468;-2.266;2022-07-23T04:40:52;101423.71;;;20.43;27.95
60041;BME280;60036;53.468;-2.266;2022-07-23T04:43:18;101424.26;;;19.98;28.11
60041;BME280;60036;53.468;-2.266;2022-07-23T04:45:43;101418.75;;;19.88;28.28
60041;BME280;60036;53.468;-2.266;2022-07-23T04:48:09;101414.77;;;19.65;28.29
60041;BME280;60036;53.468;-2.266;2022-07-23T04:50:40;101418.72;;;19.89;28.24
60041;BME280;60036;53.468;-2.266;2022-07-23T04:52:59;101411.69;;;20.10;28.07
60041;BME280;60036;53.468;-2.266;2022-07-23T04:55:24;101412.93;;;20.39;27.97
60041;BME280;60036;53.468;-2.266;2022-07-23T04:57:49;101415.40;;;20.59;27.97
60041;BME280;60036;53.468;-2.266;2022-07-23T05:00:15;101416.82;;;20.63;27.85
60041;BME280;60036;53.468;-2.266;2022-07-23T05:02:39;101419.33;;;20.60;27.80
60041;BME280;60036;53.468;-2.266;2022-07-23T05:05:05;101418.90;;;20.55;27.95
60041;BME280;60036;53.468;-2.266;2022-07-23T05:07:31;101416.08;;;20.74;27.82
60041;BME280;60036;53.468;-2.266;2022-07-23T05:09:55;101421.35;;;20.25;28.06
60041;BME280;60036;53.468;-2.266;2022-07-23T05:12:20;101422.69;;;20.49;28.00
60041;BME280;60036;53.468;-2.266;2022-07-23T05:14:45;101421.13;;;19.91;28.07
60041;BME280;60036;53.468;-2.266;2022-07-23T05:17:10;101422.44;;;20.66;28.00
60041;BME280;60036;53.468;-2.266;2022-07-23T05:19:36;101420.18;;;20.70;28.01
60041;BME280;60036;53.468;-2.266;2022-07-23T05:22:01;101413.49;;;20.78;27.84
60041;BME280;60036;53.468;-2.266;2022-07-23T05:24:26;101409.45;;;20.44;28.11
60041;BME280;60036;53.468;-2.266;2022-07-23T05:26:51;101408.15;;;20.43;28.17
60041;BME280;60036;53.468;-2.266;2022-07-23T05:29:30;101407.18;;;20.69;28.16
60041;BME280;60036;53.468;-2.266;2022-07-23T05:31:42;101401.52;;;20.28;28.35
60041;BME280;60036;53.468;-2.266;2022-07-23T05:34:07;101402.73;;;20.01;28.49
60041;BME280;60036;53.468;-2.266;2022-07-23T05:36:32;101408.85;;;20.91;28.00
60041;BME280;60036;53.468;-2.266;2022-07-23T05:38:58;101412.36;;;20.14;28.27
60041;BME280;60036;53.468;-2.266;2022-07-23T05:41:22;101409.93;;;20.85;28.06
60041;BME280;60036;53.468;-2.266;2022-07-23T05:43:48;101407.70;;;20.58;28.22
60041;BME280;60036;53.468;-2.266;2022-07-23T05:46:13;101407.85;;;20.56;28.23
60041;BME280;60036;53.468;-2.266;2022-07-23T05:48:38;101406.94;;;20.72;28.05
60041;BME280;60036;53.468;-2.266;2022-07-23T05:51:03;101410.97;;;20.66;28.36
60041;BME280;60036;53.468;-2.266;2022-07-23T05:53:28;101415.50;;;19.98;28.91
60041;BME280;60036;53.468;-2.266;2022-07-23T05:55:53;101415.98;;;20.18;28.81
60041;BME280;60036;53.468;-2.266;2022-07-23T05:58:19;101416.84;;;20.31;28.77
60041;BME280;60036;53.468;-2.266;2022-07-23T06:00:44;101408.10;;;20.54;28.46
60041;BME280;60036;53.468;-2.266;2022-07-23T06:03:09;101410.75;;;20.45;28.61
60041;BME280;60036;53.468;-2.266;2022-07-23T06:05:34;101413.04;;;19.84;29.27
60041;BME280;60036;53.468;-2.266;2022-07-23T06:07:59;101412.41;;;20.43;28.92
60041;BME280;60036;53.468;-2.266;2022-07-23T06:10:25;101414.46;;;19.73;29.30
60041;BME280;60036;53.468;-2.266;2022-07-23T06:12:50;101411.70;;;19.54;29.01
60041;BME280;60036;53.468;-2.266;2022-07-23T06:15:15;101410.68;;;19.66;29.30
60041;BME280;60036;53.468;-2.266;2022-07-23T06:17:40;101409.32;;;19.11;29.75
60041;BME280;60036;53.468;-2.266;2022-07-23T06:20:07;101410.11;;;19.53;29.29
60041;BME280;60036;53.468;-2.266;2022-07-23T06:22:31;101410.96;;;19.96;29.15
60041;BME280;60036;53.468;-2.266;2022-07-23T06:24:56;101416.91;;;19.41;29.42
60041;BME280;60036;53.468;-2.266;2022-07-23T06:27:27;101418.95;;;19.21;29.41
60041;BME280;60036;53.468;-2.266;2022-07-23T06:29:47;101419.27;;;19.61;29.63
60041;BME280;60036;53.468;-2.266;2022-07-23T06:32:12;101417.05;;;19.74;29.38
60041;BME280;60036;53.468;-2.266;2022-07-23T06:34:38;101415.73;;;19.58;29.35
60041;BME280;60036;53.468;-2.266;2022-07-23T06:37:04;101418.15;;;19.71;29.52
60041;BME280;60036;53.468;-2.266;2022-07-23T06:39:29;101416.56;;;19.67;29.42
60041;BME280;60036;53.468;-2.266;2022-07-23T06:41:54;101413.90;;;19.62;29.45
60041;BME280;60036;53.468;-2.266;2022-07-23T06:44:19;101406.10;;;19.74;29.58
60041;BME280;60036;53.468;-2.266;2022-07-23T06:46:44;101402.94;;;19.49;29.54
60041;BME280;60036;53.468;-2.266;2022-07-23T06:49:09;101408.84;;;19.54;29.47
60041;BME280;60036;53.468;-2.266;2022-07-23T06:51:35;101412.39;;;19.67;29.27
60041;BME280;60036;53.468;-2.266;2022-07-23T06:54:00;101411.29;;;20.02;29.05
60041;BME280;60036;53.468;-2.266;2022-07-23T06:56:26;101418.86;;;19.60;29.21
60041;BME280;60036;53.468;-2.266;2022-07-23T06:58:51;101424.32;;;19.54;29.42
60041;BME280;60036;53.468;-2.266;2022-07-23T07:01:17;101422.90;;;19.17;29.21
60041;BME280;60036;53.468;-2.266;2022-07-23T07:03:42;101416.80;;;19.91;28.94
60041;BME280;60036;53.468;-2.266;2022-07-23T07:06:07;101407.39;;;19.23;29.31
60041;BME280;60036;53.468;-2.266;2022-07-23T07:08:32;101403.79;;;19.66;29.25
60041;BME280;60036;53.468;-2.266;2022-07-23T07:10:58;101403.81;;;19.80;29.17
60041;BME280;60036;53.468;-2.266;2022-07-23T07:13:23;101403.49;;;19.44;29.37
60041;BME280;60036;53.468;-2.266;2022-07-23T07:15:48;101401.64;;;19.51;29.18
60041;BME280;60036;53.468;-2.266;2022-07-23T07:18:13;101399.24;;;19.34;29.20
60041;BME280;60036;53.468;-2.266;2022-07-23T07:20:38;101401.56;;;19.04;29.54
60041;BME280;60036;53.468;-2.266;2022-07-23T07:23:04;101397.86;;;19.81;29.14
60041;BME280;60036;53.468;-2.266;2022-07-23T07:25:30;101404.48;;;19.49;29.26
60041;BME280;60036;53.468;-2.266;2022-07-23T07:27:55;101410.79;;;19.18;29.49
60041;BME280;60036;53.468;-2.266;2022-07-23T07:30:20;101412.86;;;19.69;29.35
60041;BME280;60036;53.468;-2.266;2022-07-23T07:32:45;101411.23;;;19.59;29.27
60041;BME280;60036;53.468;-2.266;2022-07-23T07:35:11;101408.85;;;19.48;29.50
60041;BME280;60036;53.468;-2.266;2022-07-23T07:37:36;101402.62;;;19.49;29.36
60041;BME280;60036;53.468;-2.266;2022-07-23T07:40:01;101396.30;;;19.42;29.29
60041;BME280;60036;53.468;-2.266;2022-07-23T07:42:26;101394.69;;;19.36;29.30
60041;BME280;60036;53.468;-2.266;2022-07-23T07:44:52;101402.05;;;19.44;29.28
60041;BME280;60036;53.468;-2.266;2022-07-23T07:47:16;101400.97;;;19.63;29.06
60041;BME280;60036;53.468;-2.266;2022-07-23T07:49:42;101401.94;;;19.42;29.16
60041;BME280;60036;53.468;-2.266;2022-07-23T07:52:07;101405.47;;;19.31;29.21
60041;BME280;60036;53.468;-2.266;2022-07-23T07:54:32;101405.12;;;19.32;29.20
60041;BME280;60036;53.468;-2.266;2022-07-23T07:56:57;101404.07;;;19.82;29.01
60041;BME280;60036;53.468;-2.266;2022-07-23T07:59:23;101404.18;;;19.58;28.94
60041;BME280;60036;53.468;-2.266;2022-07-23T08:01:48;101400.78;;;19.58;28.89
60041;BME280;60036;53.468;-2.266;2022-07-23T08:04:13;101404.57;;;19.39;28.88
60041;BME280;60036;53.468;-2.266;2022-07-23T08:06:38;101403.85;;;19.50;28.89
60041;BME280;60036;53.468;-2.266;2022-07-23T08:09:04;101404.26;;;19.85;28.89
60041;BME280;60036;53.468;-2.266;2022-07-23T08:11:29;101403.70;;;19.65;29.08
60041;BME280;60036;53.468;-2.266;2022-07-23T08:13:54;101403.48;;;19.55;28.87
60041;BME280;60036;53.468;-2.266;2022-07-23T08:16:20;101399.93;;;19.77;28.92
60041;BME280;60036;53.468;-2.266;2022-07-23T08:18:45;101399.19;;;19.53;28.77
60041;BME280;60036;53.468;-2.266;2022-07-23T08:21:10;101402.92;;;19.49;28.96
60041;BME280;60036;53.468;-2.266;2022-07-23T08:23:35;101405.43;;;19.58;28.86
60041;BME280;60036;53.468;-2.266;2022-07-23T08:26:00;101407.35;;;19.67;28.80
60041;BME280;60036;53.468;-2.266;2022-07-23T08:28:26;101403.63;;;19.71;28.67
60041;BME280;60036;53.468;-2.266;2022-07-23T08:30:51;101403.87;;;19.85;28.75
60041;BME280;60036;53.468;-2.266;2022-07-23T08:33:17;101403.10;;;19.52;28.87
60041;BME280;60036;53.468;-2.266;2022-07-23T08:35:43;101403.27;;;19.66;28.75
60041;BME280;60036;53.468;-2.266;2022-07-23T08:38:08;101400.07;;;19.53;28.63
60041;BME280;60036;53.468;-2.266;2022-07-23T08:40:33;101396.32;;;19.54;28.87
60041;BME280;60036;53.468;-2.266;2022-07-23T08:42:57;101395.43;;;19.35;28.92
60041;BME280;60036;53.468;-2.266;2022-07-23T08:45:23;101386.27;;;19.57;29.13
60041;BME280;60036;53.468;-2.266;2022-07-23T08:47:49;101387.23;;;19.11;29.25
60041;BME280;60036;53.468;-2.266;2022-07-23T08:50:31;101386.69;;;19.54;29.16
60041;BME280;60036;53.468;-2.266;2022-07-23T08:52:56;101389.05;;;19.05;29.55
60041;BME280;60036;53.468;-2.266;2022-07-23T08:55:23;101390.67;;;19.53;29.05
60041;BME280;60036;53.468;-2.266;2022-07-23T08:57:48;101389.57;;;19.19;29.11
60041;BME280;60036;53.468;-2.266;2022-07-23T09:00:13;101390.72;;;18.73;29.70
60041;BME280;60036;53.468;-2.266;2022-07-23T09:02:40;101388.99;;;18.97;29.57
60041;BME280;60036;53.468;-2.266;2022-07-23T09:05:03;101390.74;;;19.12;29.50
60041;BME280;60036;53.468;-2.266;2022-07-23T09:07:28;101392.00;;;19.25;29.63
60041;BME280;60036;53.468;-2.266;2022-07-23T09:10:06;101390.60;;;19.40;29.32
60041;BME280;60036;53.468;-2.266;2022-07-23T09:12:19;101392.09;;;19.28;29.26
60041;BME280;60036;53.468;-2.266;2022-07-23T09:14:45;101389.88;;;18.98;29.26
60041;BME280;60036;53.468;-2.266;2022-07-23T09:17:12;101384.57;;;18.99;29.08
60041;BME280;60036;53.468;-2.266;2022-07-23T09:19:36;101384.78;;;18.70;29.34
60041;BME280;60036;53.468;-2.266;2022-07-23T09:22:17;101389.66;;;18.70;28.97
60041;BME280;60036;53.468;-2.266;2022-07-23T09:24:27;101390.28;;;18.52;29.26
60041;BME280;60036;53.468;-2.266;2022-07-23T09:26:53;101397.73;;;18.68;29.22
60041;BME280;60036;53.468;-2.266;2022-07-23T09:29:20;101396.21;;;18.41;29.50
60041;BME280;60036;53.468;-2.266;2022-07-23T09:31:46;101388.52;;;19.06;28.98
60041;BME280;60036;53.468;-2.266;2022-07-23T09:34:12;101385.44;;;19.21;28.89
60041;BME280;60036;53.468;-2.266;2022-07-23T09:37:19;101387.41;;;19.81;29.12
60041;BME280;60036;53.468;-2.266;2022-07-23T09:39:43;101384.60;;;19.24;29.16
60041;BME280;60036;53.468;-2.266;2022-07-23T09:42:13;101383.19;;;18.46;29.60
60041;BME280;60036;53.468;-2.266;2022-07-23T09:44:40;101378.33;;;18.15;29.38
60041;BME280;60036;53.468;-2.266;2022-07-23T09:46:59;101383.67;;;19.08;29.04
60041;BME280;60036;53.468;-2.266;2022-07-23T09:49:23;101387.86;;;18.87;29.00
60041;BME280;60036;53.468;-2.266;2022-07-23T09:51:52;101387.07;;;18.78;29.04
60041;BME280;60036;53.468;-2.266;2022-07-23T09:54:25;101386.54;;;18.53;28.93
60041;BME280;60036;53.468;-2.266;2022-07-23T09:56:39;101390.24;;;19.08;28.84
60041;BME280;60036;53.468;-2.266;2022-07-23T09:59:03;101386.98;;;18.97;28.89
60041;BME280;60036;53.468;-2.266;2022-07-23T10:01:29;101387.36;;;18.92;29.07
60041;BME280;60036;53.468;-2.266;2022-07-23T10:03:54;101387.28;;;18.97;28.45
60041;BME280;60036;53.468;-2.266;2022-07-23T10:06:20;101382.14;;;18.58;27.68
60041;BME280;60036;53.468;-2.266;2022-07-23T10:08:48;101382.67;;;19.31;27.70
60041;BME280;60036;53.468;-2.266;2022-07-23T10:11:11;101376.20;;;18.19;27.87
60041;BME280;60036;53.468;-2.266;2022-07-23T10:13:36;101376.55;;;18.36;27.68
60041;BME280;60036;53.468;-2.266;2022-07-23T10:16:01;101378.58;;;18.05;27.63
60041;BME280;60036;53.468;-2.266;2022-07-23T10:18:26;101383.75;;;18.72;27.48
60041;BME280;60036;53.468;-2.266;2022-07-23T10:21:40;101377.25;;;19.13;27.23
60041;BME280;60036;53.468;-2.266;2022-07-23T10:24:18;101376.22;;;19.19;27.12
